Berkley, Michigan
Current Conditions -  °F | °C
As of 9:38 AM on Saturday 22 Nov 2014 (Local Time) from KVLL Reporting Station
Haze Haze  
Wind Chill: -4°   Ceiling: 800
Heat Index:   Visibility: 5mi
Dew Point: -1°   Wind: 9mph
Humidity: 93%   Direction: 210°SSW
Pressure: 30.1"   Gusts: NA
Location:  42.5°N, 83.18°W
Report Text: KVLL 221438Z AUTO 21008KT 5SM BR OVC008 00/M01 A3010 RMK AO2
Loading
Personal Weather Stations






























Interactive Weather Map New forecast layout! Learn more

10-Day Weather Forecast

Advertisements
Track Severe Weather on mobile